createdAt,value
2023-09-10T00:01:09.241Z,17.86
2023-09-10T00:03:56.133Z,17.84
2023-09-10T00:06:23.690Z,17.83
2023-09-10T00:08:50.467Z,17.80
2023-09-10T00:11:17.538Z,17.77
2023-09-10T00:13:44.608Z,17.74
2023-09-10T00:16:12.093Z,17.73
2023-09-10T00:18:39.163Z,17.72
2023-09-10T00:21:06.506Z,17.69
2023-09-10T00:23:33.310Z,17.64
2023-09-10T00:26:00.469Z,17.62
2023-09-10T00:28:27.339Z,17.60
2023-09-10T00:30:55.301Z,17.59
2023-09-10T00:33:22.149Z,17.58
2023-09-10T00:35:49.185Z,17.54
2023-09-10T00:38:16.034Z,17.56
2023-09-10T00:40:43.229Z,17.49
2023-09-10T00:43:11.166Z,17.46
2023-09-10T00:45:39.040Z,17.39
2023-09-10T00:48:06.584Z,17.40
2023-09-10T00:50:34.415Z,17.40
2023-09-10T00:53:01.820Z,17.40
2023-09-10T00:55:31.159Z,17.36
2023-09-10T00:57:59.104Z,17.37
2023-09-10T01:00:28.664Z,17.36
2023-09-10T01:02:56.940Z,17.33
2023-09-10T01:05:24.063Z,17.32
2023-09-10T01:07:51.126Z,17.28
2023-09-10T01:10:18.541Z,17.23
2023-09-10T01:13:01.689Z,17.22
2023-09-10T01:15:38.090Z,17.21
2023-09-10T01:18:28.407Z,17.16
2023-09-10T01:21:30.986Z,17.14
2023-09-10T01:24:16.310Z,17.12
2023-09-10T01:26:43.420Z,17.10
2023-09-10T01:29:14.664Z,16.99
2023-09-10T01:31:45.669Z,16.99
2023-09-10T01:34:16.683Z,17.05
2023-09-10T01:36:50.864Z,17.02
2023-09-10T01:39:37.664Z,16.94
2023-09-10T01:42:09.224Z,16.92
2023-09-10T01:44:37.217Z,16.92
2023-09-10T01:47:04.992Z,16.93
2023-09-10T01:49:32.760Z,16.95
2023-09-10T01:51:59.915Z,16.93
2023-09-10T01:54:28.495Z,16.95
2023-09-10T01:56:56.416Z,16.95
2023-09-10T01:59:23.531Z,16.96
2023-09-10T02:01:50.343Z,16.94
2023-09-10T02:04:17.656Z,16.91
2023-09-10T02:06:44.554Z,16.89
2023-09-10T02:09:11.640Z,16.88
2023-09-10T02:11:38.508Z,16.89
2023-09-10T02:14:05.668Z,16.85
2023-09-10T02:16:32.563Z,16.79
2023-09-10T02:19:03.324Z,16.79
2023-09-10T02:21:30.348Z,16.71
2023-09-10T02:23:57.459Z,16.70
2023-09-10T02:26:24.328Z,16.68
2023-09-10T02:28:51.455Z,16.66
2023-09-10T02:31:18.336Z,16.59
2023-09-10T02:33:45.362Z,16.55
2023-09-10T02:36:12.118Z,16.51
2023-09-10T02:38:39.494Z,16.51
2023-09-10T02:41:07.702Z,16.50
2023-09-10T02:43:37.697Z,16.44
2023-09-10T02:46:04.675Z,16.48
2023-09-10T02:48:31.972Z,16.49
2023-09-10T02:50:58.940Z,16.49
2023-09-10T02:53:25.981Z,16.51
2023-09-10T02:56:02.114Z,16.49
2023-09-10T02:58:30.896Z,16.48
2023-09-10T03:01:06.671Z,16.43
2023-09-10T03:03:34.904Z,16.45
2023-09-10T03:06:01.919Z,16.47
2023-09-10T03:08:29.256Z,16.44
2023-09-10T03:11:02.875Z,16.47
2023-09-10T03:13:33.494Z,16.48
2023-09-10T03:16:00.468Z,16.51
2023-09-10T03:18:28.131Z,16.50
2023-09-10T03:20:55.954Z,16.48
2023-09-10T03:23:25.550Z,16.45
2023-09-10T03:25:53.557Z,16.41
2023-09-10T03:28:23.487Z,16.41
2023-09-10T03:30:52.927Z,16.36
2023-09-10T03:33:20.099Z,16.31
2023-09-10T03:35:47.153Z,16.29
2023-09-10T03:38:14.331Z,16.18
2023-09-10T03:40:41.234Z,16.19
2023-09-10T03:43:08.354Z,16.20
2023-09-10T03:45:36.173Z,16.18
2023-09-10T03:48:03.458Z,16.16
2023-09-10T03:50:30.360Z,16.14
2023-09-10T03:53:00.755Z,16.09
2023-09-10T03:55:30.520Z,16.07
2023-09-10T03:58:00.365Z,16.05
2023-09-10T04:00:27.456Z,16.04
2023-09-10T04:02:57.683Z,16.04
2023-09-10T04:05:24.837Z,15.99
2023-09-10T04:07:52.247Z,15.99
2023-09-10T04:10:21.702Z,15.93
2023-09-10T04:12:48.816Z,15.94
2023-09-10T04:15:18.760Z,15.95
2023-09-10T04:17:45.885Z,15.93
2023-09-10T04:20:16.350Z,15.93
2023-09-10T04:22:43.475Z,15.92
2023-09-10T04:25:10.262Z,15.87
2023-09-10T04:27:37.378Z,15.87
2023-09-10T04:30:05.655Z,15.89
2023-09-10T04:32:33.523Z,15.84
2023-09-10T04:35:00.585Z,15.87
2023-09-10T04:37:29.038Z,15.85
2023-09-10T04:39:55.921Z,15.76
2023-09-10T04:42:23.010Z,15.84
2023-09-10T04:44:50.630Z,15.87
2023-09-10T04:47:17.871Z,15.87
2023-09-10T04:49:44.829Z,15.89
2023-09-10T04:52:11.992Z,15.93
2023-09-10T04:54:38.819Z,15.98
2023-09-10T04:57:09.471Z,16.02
2023-09-10T04:59:41.954Z,16.04
2023-09-10T05:02:09.694Z,16.08
2023-09-10T05:04:39.436Z,16.08
2023-09-10T05:07:14.199Z,16.17
2023-09-10T05:09:41.443Z,16.18
2023-09-10T05:12:10.664Z,16.26
2023-09-10T05:14:37.526Z,16.35
2023-09-10T05:17:05.002Z,16.40
2023-09-10T05:19:31.790Z,16.44
2023-09-10T05:22:01.766Z,16.55
2023-09-10T05:24:28.568Z,16.62
2023-09-10T05:26:57.929Z,16.70
2023-09-10T05:29:27.294Z,16.76
2023-09-10T05:31:57.418Z,16.79
2023-09-10T05:34:24.339Z,16.87
2023-09-10T05:36:52.927Z,16.96
2023-09-10T05:39:20.173Z,17.07
2023-09-10T05:41:47.286Z,17.14
2023-09-10T05:44:14.148Z,17.22
2023-09-10T05:46:41.281Z,17.28
2023-09-10T05:49:08.186Z,17.35
2023-09-10T05:51:35.303Z,17.45
2023-09-10T05:54:02.159Z,17.53
2023-09-10T05:56:32.129Z,17.60
2023-09-10T05:59:00.019Z,17.66
2023-09-10T06:01:27.426Z,17.78
2023-09-10T06:03:54.840Z,17.90
2023-09-10T06:06:24.868Z,18.02
2023-09-10T06:08:54.426Z,18.11
2023-09-10T06:11:24.145Z,18.21
2023-09-10T06:13:51.019Z,18.32
2023-09-10T06:16:18.618Z,18.41
2023-09-10T06:18:45.584Z,18.48
2023-09-10T06:21:12.666Z,18.56
2023-09-10T06:23:39.441Z,18.68
2023-09-10T06:26:06.834Z,18.77
2023-09-10T06:28:33.705Z,18.87
2023-09-10T06:31:01.658Z,18.95
2023-09-10T06:33:28.648Z,19.05
2023-09-10T06:35:56.652Z,19.15
2023-09-10T06:38:23.594Z,19.28
2023-09-10T06:40:53.786Z,19.34
2023-09-10T06:43:26.398Z,19.45
2023-09-10T06:45:53.536Z,19.57
2023-09-10T06:48:23.499Z,19.63
2023-09-10T06:50:50.675Z,19.74
2023-09-10T06:53:17.502Z,19.86
2023-09-10T06:55:44.739Z,19.94
2023-09-10T06:58:15.423Z,20.08
2023-09-10T07:00:42.840Z,20.18
2023-09-10T07:03:11.360Z,20.31
2023-09-10T07:05:42.987Z,20.43
2023-09-10T07:08:14.574Z,20.55
2023-09-10T07:10:44.679Z,20.67
2023-09-10T07:13:11.507Z,20.79
2023-09-10T07:15:39.684Z,20.94
2023-09-10T07:18:06.670Z,21.05
2023-09-10T07:20:37.821Z,21.17
2023-09-10T07:23:04.986Z,21.30
2023-09-10T07:25:32.157Z,21.42
2023-09-10T07:27:58.980Z,21.58
2023-09-10T07:30:26.096Z,21.76
2023-09-10T07:32:53.070Z,21.94
2023-09-10T07:35:20.291Z,22.08
2023-09-10T07:37:47.186Z,22.26
2023-09-10T07:40:17.354Z,22.49
2023-09-10T07:42:45.229Z,22.71
2023-09-10T07:45:15.661Z,22.84
2023-09-10T07:47:43.295Z,22.95
2023-09-10T07:50:13.573Z,23.19
2023-09-10T07:52:49.332Z,23.38
2023-09-10T07:55:16.525Z,23.43
2023-09-10T07:57:46.561Z,23.59
2023-09-10T08:00:14.198Z,23.71
2023-09-10T08:02:42.102Z,23.79
2023-09-10T08:05:10.279Z,23.75
2023-09-10T08:07:37.316Z,23.98
2023-09-10T08:10:04.858Z,24.22
2023-09-10T08:12:34.740Z,24.36
2023-09-10T08:15:03.210Z,24.60
2023-09-10T08:17:35.215Z,24.77
2023-09-10T08:20:02.384Z,24.95
2023-09-10T08:22:38.932Z,25.05
2023-09-10T08:25:11.317Z,25.11
2023-09-10T08:27:38.114Z,25.29
2023-09-10T08:30:09.100Z,25.38
2023-09-10T08:32:39.259Z,25.57
2023-09-10T08:35:07.192Z,25.69
2023-09-10T08:37:34.028Z,25.73
2023-09-10T08:40:04.407Z,25.92
2023-09-10T08:42:51.394Z,25.86
2023-09-10T08:45:18.625Z,25.96
2023-09-10T08:47:49.169Z,26.15
2023-09-10T08:50:16.729Z,26.30
2023-09-10T08:52:45.498Z,26.53
2023-09-10T08:55:14.270Z,26.64
2023-09-10T08:57:47.219Z,26.90
2023-09-10T09:00:14.570Z,26.99
2023-09-10T09:02:43.319Z,27.17
2023-09-10T09:05:11.298Z,27.37
2023-09-10T09:07:49.250Z,27.07
2023-09-10T09:10:36.703Z,27.49
2023-09-10T09:13:09.792Z,27.78
2023-09-10T09:15:42.459Z,27.75
2023-09-10T09:18:10.677Z,28.06
2023-09-10T09:20:39.750Z,28.22
2023-09-10T09:23:13.953Z,27.96
2023-09-10T09:25:44.749Z,28.20
2023-09-10T09:28:13.842Z,28.53
2023-09-10T09:30:41.423Z,28.56
2023-09-10T09:33:08.349Z,28.38
2023-09-10T09:35:38.248Z,28.45
2023-09-10T09:38:06.606Z,28.75
2023-09-10T09:40:35.263Z,29.09
2023-09-10T09:43:20.272Z,29.39
2023-09-10T09:45:48.584Z,29.42
2023-09-10T09:48:18.371Z,29.76
2023-09-10T09:50:48.348Z,29.99
2023-09-10T09:53:16.282Z,30.25
2023-09-10T09:55:46.202Z,30.41
2023-09-10T09:58:13.177Z,30.55
2023-09-10T10:00:40.246Z,30.54
2023-09-10T10:03:07.234Z,30.73
2023-09-10T10:05:35.125Z,30.66
2023-09-10T10:08:02.086Z,30.23
2023-09-10T10:10:29.205Z,29.95
2023-09-10T10:12:58.845Z,30.14
2023-09-10T10:15:27.440Z,30.16
2023-09-10T10:17:56.144Z,30.34
2023-09-10T10:20:23.744Z,30.54
2023-09-10T10:22:52.418Z,30.65
2023-09-10T10:25:20.358Z,30.98
2023-09-10T10:27:48.503Z,31.30
2023-09-10T10:30:15.628Z,31.47
2023-09-10T10:32:46.937Z,31.59
2023-09-10T10:35:14.779Z,31.95
2023-09-10T10:37:52.315Z,32.29
2023-09-10T10:40:25.903Z,32.39
2023-09-10T10:43:17.547Z,32.46
2023-09-10T10:45:47.511Z,32.71
2023-09-10T10:48:20.885Z,32.57
2023-09-10T10:50:50.272Z,32.41
2023-09-10T10:53:21.965Z,32.62
2023-09-10T10:55:54.703Z,32.68
2023-09-10T10:58:32.136Z,32.93
2023-09-10T11:01:00.516Z,32.22
2023-09-10T11:03:27.470Z,32.33
2023-09-10T11:05:59.214Z,32.67
2023-09-10T11:08:27.666Z,32.90
2023-09-10T11:10:55.377Z,32.92
2023-09-10T11:13:25.986Z,32.82
2023-09-10T11:16:19.724Z,32.64
2023-09-10T11:18:46.703Z,32.70
2023-09-10T11:21:17.668Z,32.96
2023-09-10T11:23:56.354Z,33.01
2023-09-10T11:26:23.436Z,33.13
2023-09-10T11:29:01.207Z,32.71
2023-09-10T11:31:36.577Z,32.93
2023-09-10T11:34:24.544Z,33.49
2023-09-10T11:36:54.873Z,34.06
2023-09-10T11:39:23.840Z,34.26
2023-09-10T11:41:53.033Z,34.47
2023-09-10T11:44:21.512Z,34.60
2023-09-10T11:46:52.540Z,34.30
2023-09-10T11:49:20.781Z,34.43
2023-09-10T11:51:56.323Z,34.70
2023-09-10T11:54:23.936Z,34.89
2023-09-10T11:56:59.016Z,34.81
2023-09-10T11:59:32.766Z,34.29
2023-09-10T12:02:00.851Z,34.60
2023-09-10T12:04:32.492Z,34.68
2023-09-10T12:07:02.908Z,34.85
2023-09-10T12:09:31.362Z,35.20
2023-09-10T12:12:28.354Z,35.14
2023-09-10T12:14:56.172Z,35.47
2023-09-10T12:17:24.288Z,35.67
2023-09-10T12:19:51.684Z,36.01
2023-09-10T12:22:22.350Z,36.71
2023-09-10T12:24:49.342Z,37.37
2023-09-10T12:27:19.216Z,38.81
2023-09-10T12:29:46.661Z,39.59
2023-09-10T12:32:14.170Z,40.15
2023-09-10T12:34:44.200Z,40.18
2023-09-10T12:37:18.134Z,40.65
2023-09-10T12:39:46.332Z,40.14
2023-09-10T12:42:13.516Z,39.73
2023-09-10T12:44:42.190Z,38.66
2023-09-10T12:47:13.634Z,39.53
2023-09-10T12:49:41.357Z,40.67
2023-09-10T12:52:08.638Z,41.82
2023-09-10T12:54:35.574Z,42.40
2023-09-10T12:57:14.134Z,42.10
2023-09-10T12:59:41.201Z,42.75
2023-09-10T13:02:11.356Z,43.31
2023-09-10T13:04:44.035Z,43.00
2023-09-10T13:07:14.365Z,43.73
2023-09-10T13:09:42.542Z,44.51
2023-09-10T13:12:10.368Z,44.06
2023-09-10T13:14:40.776Z,44.47
2023-09-10T13:17:10.318Z,44.71
2023-09-10T13:19:38.990Z,44.09
2023-09-10T13:22:08.110Z,44.28
2023-09-10T13:24:35.214Z,45.17
2023-09-10T13:27:02.561Z,45.01
2023-09-10T13:29:29.470Z,45.39
2023-09-10T13:31:56.658Z,44.67
2023-09-10T13:34:23.533Z,45.11
2023-09-10T13:36:50.642Z,44.89
2023-09-10T13:39:17.449Z,45.08
2023-09-10T13:41:51.858Z,45.60
2023-09-10T13:44:18.767Z,46.13
2023-09-10T13:46:48.390Z,47.12
2023-09-10T13:49:16.248Z,45.85
2023-09-10T13:51:48.561Z,45.46
2023-09-10T13:54:15.410Z,44.99
2023-09-10T13:56:42.953Z,45.78
2023-09-10T13:59:09.905Z,46.89
2023-09-10T14:01:40.431Z,46.54
2023-09-10T14:04:07.591Z,46.69
2023-09-10T14:06:35.437Z,45.61
2023-09-10T14:09:05.559Z,45.15
2023-09-10T14:11:32.774Z,45.36
2023-09-10T14:14:00.102Z,44.90
2023-09-10T14:16:27.344Z,45.87
2023-09-10T14:18:54.380Z,46.86
2023-09-10T14:21:22.270Z,47.05
2023-09-10T14:23:49.141Z,45.56
2023-09-10T14:26:16.323Z,45.43
2023-09-10T14:28:43.286Z,44.15
2023-09-10T14:31:10.841Z,44.49
2023-09-10T14:33:38.449Z,44.13
2023-09-10T14:36:08.751Z,44.82
2023-09-10T14:38:35.614Z,45.02
2023-09-10T14:41:02.844Z,44.67
2023-09-10T14:43:31.217Z,43.89
2023-09-10T14:45:58.321Z,44.80
2023-09-10T14:48:25.378Z,45.58
2023-09-10T14:50:52.508Z,44.62
2023-09-10T14:53:19.432Z,44.58
2023-09-10T14:55:46.621Z,45.52
2023-09-10T14:58:16.138Z,44.87
2023-09-10T15:00:43.353Z,46.15
2023-09-10T15:03:10.322Z,44.95
2023-09-10T15:05:41.172Z,45.17
2023-09-10T15:08:12.440Z,45.40
2023-09-10T15:10:39.601Z,46.00
2023-09-10T15:13:06.476Z,46.03
2023-09-10T15:15:36.551Z,46.87
2023-09-10T15:18:04.837Z,45.41
2023-09-10T15:20:35.188Z,45.94
2023-09-10T15:23:05.128Z,45.68
2023-09-10T15:25:32.379Z,45.20
2023-09-10T15:28:00.476Z,45.24
2023-09-10T15:30:27.660Z,44.11
2023-09-10T15:32:54.617Z,44.63
2023-09-10T15:35:22.802Z,45.19
2023-09-10T15:37:49.607Z,44.60
2023-09-10T15:40:19.490Z,43.83
2023-09-10T15:42:49.372Z,43.36
2023-09-10T15:45:16.480Z,41.69
2023-09-10T15:47:50.784Z,42.87
2023-09-10T15:50:20.670Z,42.05
2023-09-10T15:52:50.505Z,41.78
2023-09-10T15:55:17.628Z,41.30
2023-09-10T15:57:50.777Z,40.40
2023-09-10T16:00:18.323Z,39.17
2023-09-10T16:02:48.584Z,36.85
2023-09-10T16:05:15.996Z,35.36
2023-09-10T16:07:43.041Z,34.34
2023-09-10T16:10:10.373Z,33.48
2023-09-10T16:12:40.274Z,33.01
2023-09-10T16:15:07.885Z,32.18
2023-09-10T16:17:34.714Z,31.64
2023-09-10T16:20:05.792Z,31.14
2023-09-10T16:22:34.578Z,30.88
2023-09-10T16:25:04.636Z,30.51
2023-09-10T16:27:31.510Z,30.25
2023-09-10T16:30:02.475Z,29.97
2023-09-10T16:32:29.410Z,29.80
2023-09-10T16:35:01.076Z,29.51
2023-09-10T16:37:29.106Z,29.17
2023-09-10T16:39:56.338Z,28.94
2023-09-10T16:42:23.139Z,28.72
2023-09-10T16:44:52.651Z,28.49
2023-09-10T16:47:19.524Z,28.26
2023-09-10T16:49:46.616Z,28.12
2023-09-10T16:52:13.448Z,27.85
2023-09-10T16:54:40.691Z,27.69
2023-09-10T16:57:07.781Z,27.59
2023-09-10T16:59:34.888Z,27.33
2023-09-10T17:02:01.845Z,27.13
2023-09-10T17:04:31.279Z,26.91
2023-09-10T17:06:59.311Z,26.79
2023-09-10T17:09:26.370Z,26.61
2023-09-10T17:11:56.133Z,26.41
2023-09-10T17:14:23.330Z,26.25
2023-09-10T17:16:50.188Z,25.99
2023-09-10T17:19:18.188Z,25.94
2023-09-10T17:21:45.000Z,25.72
2023-09-10T17:24:14.681Z,25.69
2023-09-10T17:26:41.735Z,25.58
2023-09-10T17:29:08.904Z,25.36
2023-09-10T17:31:36.245Z,25.27
2023-09-10T17:34:03.362Z,25.17
2023-09-10T17:36:30.286Z,25.07
2023-09-10T17:38:57.447Z,24.98
2023-09-10T17:41:24.293Z,24.87
2023-09-10T17:43:52.986Z,24.69
2023-09-10T17:46:19.993Z,24.67
2023-09-10T17:48:49.145Z,24.59
2023-09-10T17:51:21.760Z,24.47
2023-09-10T17:53:49.077Z,24.36
2023-09-10T17:56:19.203Z,24.28
2023-09-10T17:58:46.400Z,24.15
2023-09-10T18:01:13.331Z,23.98
2023-09-10T18:03:40.774Z,23.89
2023-09-10T18:06:11.115Z,23.84
2023-09-10T18:08:38.225Z,23.76
2023-09-10T18:11:05.062Z,23.69
2023-09-10T18:13:35.132Z,23.63
2023-09-10T18:16:04.823Z,23.55
2023-09-10T18:18:31.982Z,23.44
2023-09-10T18:21:01.423Z,23.33
2023-09-10T18:23:31.622Z,23.28
2023-09-10T18:26:01.611Z,23.20
2023-09-10T18:28:28.720Z,23.08
2023-09-10T18:31:06.366Z,22.96
2023-09-10T18:33:40.578Z,22.90
2023-09-10T18:36:07.636Z,22.84
2023-09-10T18:38:43.126Z,22.70
2023-09-10T18:41:10.098Z,22.66
2023-09-10T18:43:37.742Z,22.63
2023-09-10T18:46:08.108Z,22.60
2023-09-10T18:48:35.266Z,22.58
2023-09-10T18:51:04.357Z,22.50
2023-09-10T18:53:32.460Z,22.49
2023-09-10T18:56:02.562Z,22.49
2023-09-10T18:58:29.795Z,22.40
2023-09-10T19:00:58.144Z,22.33
2023-09-10T19:03:25.824Z,22.28
2023-09-10T19:05:54.222Z,22.22
2023-09-10T19:08:21.318Z,22.13
2023-09-10T19:10:52.729Z,22.12
2023-09-10T19:13:20.873Z,22.03
2023-09-10T19:15:51.076Z,21.98
2023-09-10T19:18:18.843Z,21.89
2023-09-10T19:20:48.147Z,21.89
2023-09-10T19:23:19.310Z,21.82
2023-09-10T19:25:46.195Z,21.81
2023-09-10T19:28:13.814Z,21.78
2023-09-10T19:30:41.755Z,21.75
2023-09-10T19:33:10.457Z,21.70
2023-09-10T19:35:40.132Z,21.65
2023-09-10T19:38:07.263Z,21.63
2023-09-10T19:40:35.541Z,21.54
2023-09-10T19:43:05.516Z,21.48
2023-09-10T19:45:32.375Z,21.48
2023-09-10T19:47:59.569Z,21.41
2023-09-10T19:50:26.702Z,21.33
2023-09-10T19:52:53.943Z,21.28
2023-09-10T19:55:23.571Z,21.21
2023-09-10T19:57:50.639Z,21.20
2023-09-10T20:00:17.621Z,21.15
2023-09-10T20:02:47.810Z,21.14
2023-09-10T20:05:14.879Z,21.07
2023-09-10T20:07:43.083Z,21.03
2023-09-10T20:10:11.771Z,21.01
2023-09-10T20:12:39.231Z,20.99
2023-09-10T20:15:08.351Z,20.95
2023-09-10T20:17:38.247Z,20.87
2023-09-10T20:20:05.929Z,20.84
2023-09-10T20:22:33.068Z,20.78
2023-09-10T20:24:59.948Z,20.78
2023-09-10T20:27:27.090Z,20.77
2023-09-10T20:29:54.085Z,20.70
2023-09-10T20:32:21.265Z,20.63
2023-09-10T20:34:48.462Z,20.58
2023-09-10T20:37:15.565Z,20.57
2023-09-10T20:39:42.953Z,20.56
2023-09-10T20:42:10.149Z,20.49
2023-09-10T20:44:37.014Z,20.42
2023-09-10T20:47:04.406Z,20.35
2023-09-10T20:49:34.254Z,20.35
2023-09-10T20:52:04.405Z,20.30
2023-09-10T20:54:31.185Z,20.29
2023-09-10T20:56:58.334Z,20.23
2023-09-10T20:59:25.184Z,20.23
2023-09-10T21:01:52.300Z,20.16
2023-09-10T21:04:19.218Z,20.08
2023-09-10T21:06:46.797Z,20.05
2023-09-10T21:09:16.410Z,20.02
2023-09-10T21:11:43.588Z,19.96
2023-09-10T21:14:10.424Z,19.96
2023-09-10T21:16:37.564Z,19.92
2023-09-10T21:19:04.524Z,19.88
2023-09-10T21:21:34.707Z,19.85
2023-09-10T21:24:02.889Z,19.84
2023-09-10T21:26:32.609Z,19.79
2023-09-10T21:29:02.401Z,19.70
2023-09-10T21:31:29.515Z,19.67
2023-09-10T21:33:56.316Z,19.65
2023-09-10T21:36:23.763Z,19.57
2023-09-10T21:38:50.568Z,19.56
2023-09-10T21:41:17.720Z,19.52
2023-09-10T21:43:44.477Z,19.49
2023-09-10T21:46:11.652Z,19.43
2023-09-10T21:48:38.739Z,19.42
2023-09-10T21:51:06.227Z,19.38
2023-09-10T21:53:33.102Z,19.29
2023-09-10T21:56:00.211Z,19.27
2023-09-10T21:58:27.049Z,19.28
2023-09-10T22:00:54.120Z,19.28
2023-09-10T22:03:21.065Z,19.28
2023-09-10T22:05:51.157Z,19.24
2023-09-10T22:08:18.015Z,19.20
2023-09-10T22:10:45.108Z,19.17
2023-09-10T22:13:19.204Z,19.16
2023-09-10T22:15:49.344Z,19.14
2023-09-10T22:18:16.217Z,19.11
2023-09-10T22:20:43.329Z,19.06
2023-09-10T22:23:17.808Z,19.01
2023-09-10T22:25:49.320Z,18.92
2023-09-10T22:28:20.855Z,18.88
2023-09-10T22:30:48.306Z,18.90
2023-09-10T22:33:15.592Z,18.88
2023-09-10T22:35:42.818Z,18.85
2023-09-10T22:38:09.800Z,18.82
2023-09-10T22:40:36.875Z,18.80
2023-09-10T22:43:03.702Z,18.80
2023-09-10T22:45:30.836Z,18.76
2023-09-10T22:47:57.737Z,18.77
2023-09-10T22:50:24.994Z,18.75
2023-09-10T22:52:55.131Z,18.73
2023-09-10T22:55:22.660Z,18.68
2023-09-10T22:57:49.721Z,18.59
2023-09-10T23:00:17.135Z,18.60
2023-09-10T23:02:44.065Z,18.60
2023-09-10T23:05:14.215Z,18.61
2023-09-10T23:07:47.058Z,18.55
2023-09-10T23:10:22.061Z,18.51
2023-09-10T23:12:53.346Z,18.47
2023-09-10T23:15:28.708Z,18.45
2023-09-10T23:17:56.619Z,18.34
2023-09-10T23:20:24.209Z,18.33
2023-09-10T23:23:00.756Z,18.34
2023-09-10T23:25:30.954Z,18.35
2023-09-10T23:27:57.767Z,18.30
2023-09-10T23:30:25.068Z,18.26
2023-09-10T23:32:51.911Z,18.23
2023-09-10T23:35:19.124Z,18.21
2023-09-10T23:37:46.406Z,18.15
2023-09-10T23:40:13.471Z,18.09
2023-09-10T23:42:40.347Z,18.07
2023-09-10T23:45:11.750Z,18.03
2023-09-10T23:47:38.720Z,17.97
2023-09-10T23:50:06.256Z,17.94
2023-09-10T23:52:33.025Z,17.95
2023-09-10T23:55:00.377Z,17.90
2023-09-10T23:57:27.206Z,17.84
2023-09-10T23:59:56.996Z,17.83
